Latest Weather Observations for Esperance

IDW60801

Issued at 12:53 pm WST Saturday 22 February 2020 (issued every 10 minutes, with the page automatically refreshed every 10 minutes)

About weather observations | Map of weather stations | Latest weather observations for WA | Other Formats
Station Details ID: 009789 Name: ESPERANCE Lat: -33.83 Lon: 121.89 Height: 25.0 m
Data from the previous 72 hours. | See also: Recent months at Esperance
Date/Time
WST
Temp
°C
App
Temp
°C
Dew
Point
°C
Rel
Hum
%
Delta-T
°C
Wind Press
QNH
hPa
Press
MSL
hPa
Rain since
9am
mm
Dir  Spd
km/h
Gust
km/h
Spd
kts
Gust
kts
22/12:30pm 30.2 28.5 9.7 28 11.6 NNE 9 13 5 7 1014.7 1014.7 0.0
22/12:00pm 31.3 29.0 10.6 28 11.9 NNE 13 22 7 12 1014.8 1014.8 0.0
22/11:30am 30.7 29.0 11.1 30 11.3 N 11 19 6 10 1015.3 1015.3 0.0
22/11:00am 28.9 26.0 11.0 33 10.2 NNE 17 28 9 15 1015.8 1015.7 0.0
22/10:30am 26.2 23.0 11.2 39 8.5 NNE 19 28 10 15 1016.5 1016.4 0.0
22/10:00am 24.3 20.8 10.9 43 7.5 NNE 20 32 11 17 1016.8 1016.7 0.0
22/09:30am 24.5 21.2 11.5 44 7.3 NNE 20 32 11 17 1017.2 1017.1 0.0
22/09:00am 22.7 19.6 11.7 49 6.2 NNE 19 28 10 15 1017.4 1017.3 0.0
22/08:30am 21.7 18.4 11.7 53 5.6 NNE 20 35 11 19 1017.5 1017.4 0.0
22/08:00am 20.5 16.6 12.0 58 4.7 NNE 24 39 13 21 1017.6 1017.5 0.0
22/07:30am 19.3 15.8 12.1 63 4.0 NNE 22 37 12 20 1017.6 1017.5 0.0
22/07:00am 18.8 15.9 12.3 66 3.6 NNE 19 32 10 17 1017.7 1017.6 0.0
22/06:30am 18.4 15.7 12.8 70 3.1 NNE 19 32 10 17 1017.6 1017.5 0.0
22/06:00am 18.1 15.9 13.2 73 2.8 NE 17 28 9 15 1017.7 1017.6 0.0
22/05:30am 18.0 15.4 13.3 74 2.7 NE 19 28 10 15 1017.5 1017.4 0.0
22/05:00am 17.6 15.0 13.1 75 2.5 NE 19 30 10 16 1017.5 1017.4 0.0
22/04:30am 17.4 14.8 13.3 77 2.3 NE 19 26 10 14 1017.5 1017.4 0.0
22/04:00am 17.0 14.7 13.1 78 2.2 NE 17 26 9 14 1017.5 1017.4 0.0
22/03:30am 16.8 14.9 13.1 79 2.1 NE 15 22 8 12 1017.7 1017.6 0.0
22/03:00am 16.7 14.9 13.2 80 2.0 NE 15 24 8 13 1018.0 1017.9 0.0
22/02:30am 16.6 14.7 13.1 80 2.0 NE 15 24 8 13 1018.1 1018.0 0.0
22/02:00am 16.5 14.9 12.8 79 2.0 ENE 13 19 7 10 1018.2 1018.1 0.0
22/01:30am 16.8 14.9 12.9 78 2.2 NE 15 22 8 12 1018.7 1018.6 0.0
22/01:00am 17.0 15.4 12.9 77 2.3 ENE 13 22 7 12 1018.8 1018.7 0.0
22/12:30am 17.2 15.6 12.7 75 2.5 ENE 13 24 7 13 1019.0 1018.9 0.0
22/12:00am 17.2 15.6 12.7 75 2.5 ENE 13 22 7 12 1019.3 1019.2 0.0
 
Date/Time
WST
Temp
°C
App
Temp
°C
Dew
Point
°C
Rel
Hum
%
Delta-T
°C
Wind Press
QNH
hPa
Press
MSL
hPa
Rain since
9am
mm
Dir  Spd
km/h
Gust
km/h
Spd
kts
Gust
kts
21/11:30pm 17.3 15.6 12.4 73 2.7 ENE 13 24 7 13 1019.7 1019.6 0.0
21/11:00pm 17.7 15.6 12.4 71 2.9 ENE 15 26 8 14 1019.8 1019.7 0.0
21/10:30pm 18.0 15.5 12.2 69 3.2 NE 17 26 9 14 1019.8 1019.7 0.0
21/10:00pm 18.2 15.7 12.2 68 3.3 E 17 30 9 16 1019.8 1019.7 0.0
21/09:30pm 18.5 15.9 12.0 66 3.6 E 17 28 9 15 1020.1 1020.0 0.0
21/09:00pm 19.1 16.6 12.4 65 3.7 E 17 26 9 14 1020.1 1020.0 0.0
21/08:30pm 19.7 16.9 12.5 63 4.0 E 19 30 10 16 1020.1 1020.0 0.0
21/08:00pm 19.6 17.2 12.6 64 3.9 E 17 28 9 15 1019.7 1019.6 0.0
21/07:30pm 19.9 16.9 13.6 67 3.6 ESE 22 32 12 17 1019.1 1019.0 0.0
21/07:00pm 20.2 16.7 13.4 65 3.9 ESE 24 35 13 19 1018.5 1018.4 0.0
21/06:30pm 20.7 16.8 13.4 63 4.2 ESE 26 39 14 21 1018.2 1018.1 0.0
21/06:00pm 21.2 17.4 13.6 62 4.4 ESE 26 39 14 21 1017.9 1017.8 0.0
21/05:30pm 21.3 17.0 14.5 65 4.0 ESE 30 41 16 22 1018.0 1017.9 0.0
21/05:00pm 21.1 16.4 14.3 65 4.0 ESE 32 43 17 23 1017.9 1017.8 0.0
21/04:30pm 21.6 16.9 14.3 63 4.3 ESE 32 50 17 27 1018.0 1017.9 0.0
21/04:24pm 21.8 17.1 14.2 62 4.4 ESE 32 50 17 27 1018.0 1017.9 0.0
21/04:00pm 22.2 18.1 14.8 63 4.4 ESE 30 41 16 22 1018.1 1018.0 0.0
21/03:30pm 22.1 16.8 14.2 61 4.6 ESE 35 50 19 27 1018.3 1018.2 0.0
21/03:00pm 23.4 18.1 14.1 56 5.5 SE 35 50 19 27 1018.5 1018.4 0.0
21/02:30pm 23.9 18.3 13.4 51 6.1 SE 35 50 19 27 1018.8 1018.7 0.0
21/02:16pm 24.3 20.1 13.5 51 6.3 SE 28 48 15 26 1019.1 1019.0 0.0
21/02:00pm 23.7 19.0 13.3 52 6.0 SE 30 41 16 22 1019.4 1019.3 0.0
21/01:30pm 23.6 19.6 12.9 51 6.2 SE 26 35 14 19 1020.1 1020.0 0.0
21/01:00pm 22.9 18.3 13.4 55 5.5 SE 30 41 16 22 1020.2 1020.1 0.0
21/12:30pm 27.1 23.3 9.0 32 9.9 ENE 19 26 10 14 1020.6 1020.5 0.0
21/12:00pm 26.9 23.0 8.8 32 9.9 NE 19 35 10 19 1021.1 1021.0 0.0
21/11:30am 25.6 21.5 8.6 34 9.2 NNE 20 35 11 19 1021.5 1021.4 0.0
21/11:00am 24.5 20.6 8.5 36 8.5 NE 19 28 10 15 1022.2 1022.1 0.0
21/10:30am 24.5 20.7 8.9 37 8.4 NE 19 30 10 16 1022.5 1022.4 0.0
21/10:00am 23.2 18.8 8.9 40 7.6 NE 22 37 12 20 1023.1 1023.0 0.0
21/09:30am 22.6 18.9 9.4 43 7.1 NE 19 33 10 18 1023.4 1023.3 0.0
21/09:00am 21.5 17.5 9.1 45 6.6 ENE 20 30 11 16 1023.6 1023.5 0.0
21/08:30am 21.1 18.3 11.2 53 5.5 NE 17 22 9 12 1023.5 1023.4 0.0
21/08:00am 19.0 16.6 12.7 67 3.5 NE 17 26 9 14 1023.6 1023.5 0.0
21/07:30am 16.9 15.6 12.6 76 2.4 NNE 11 19 6 10 1023.5 1023.4 0.0
21/07:00am 14.5 13.4 11.8 84 1.4 N 9 13 5 7 1023.5 1023.4 0.0
21/06:30am 13.4 12.5 11.3 87 1.1 NE 7 9 4 5 1023.3 1023.2 0.0
21/06:00am 13.0 11.7 11.4 90 0.8 NE 9 11 5 6 1022.9 1022.8 0.0
21/05:30am 12.8 11.4 11.0 89 0.9 ENE 9 11 5 6 1022.7 1022.6 0.0
21/05:00am 13.1 11.8 11.2 88 1.0 E 9 15 5 8 1022.6 1022.5 0.0
21/04:30am 13.1 11.8 11.2 88 1.0 ESE 9 13 5 7 1022.5 1022.4 0.0
21/04:00am 13.3 11.9 11.0 86 1.2 E 9 11 5 6 1022.3 1022.2 0.0
21/03:30am 13.6 12.7 11.3 86 1.2 E 7 11 4 6 1022.1 1022.0 0.0
21/03:00am 13.7 12.3 11.0 84 1.4 NE 9 11 5 6 1021.7 1021.6 0.0
21/02:30am 14.1 12.8 11.3 83 1.5 NE 9 11 5 6 1021.7 1021.6 0.0
21/02:00am 14.3 13.0 11.3 82 1.6 NE 9 11 5 6 1021.7 1021.6 0.0
21/01:30am 14.8 13.2 11.4 80 1.8 NE 11 17 6 9 1021.6 1021.5 0.0
21/01:00am 15.2 13.9 11.4 78 2.0 E 9 15 5 8 1021.7 1021.6 0.0
21/12:30am 15.8 14.2 11.6 76 2.3 E 11 19 6 10 1022.0 1021.9 0.0
21/12:00am 16.1 14.5 11.7 75 2.4 ENE 11 20 6 11 1022.1 1022.0 0.0
 
Date/Time
WST
Temp
°C
App
Temp
°C
Dew
Point
°C
Rel
Hum
%
Delta-T
°C
Wind Press
QNH
hPa
Press
MSL
hPa
Rain since
9am
mm
Dir  Spd
km/h
Gust
km/h
Spd
kts
Gust
kts
20/11:30pm 16.4 14.9 11.8 74 2.5 ENE 11 20 6 11 1022.2 1022.1 0.0
20/11:00pm 16.7 14.8 11.8 73 2.7 ENE 13 20 7 11 1022.5 1022.4 0.0
20/10:30pm 17.0 14.7 11.7 71 2.9 E 15 22 8 12 1022.6 1022.5 0.0
20/10:00pm 17.3 15.3 11.6 69 3.1 E 13 24 7 13 1022.8 1022.7 0.0
20/09:30pm 17.7 14.7 11.9 69 3.2 E 19 32 10 17 1022.7 1022.6 0.0
20/09:00pm 18.0 15.0 12.7 71 2.9 E 20 32 11 17 1022.5 1022.4 0.0
20/08:30pm 18.2 14.9 12.9 71 3.0 E 22 33 12 18 1022.2 1022.1 0.0
20/08:00pm 18.6 15.1 13.5 72 2.9 E 24 35 13 19 1021.9 1021.8 0.0
20/07:30pm 18.9 14.9 14.0 73 2.8 ESE 28 44 15 24 1021.3 1021.2 0.0
20/07:00pm 19.1 15.1 14.1 73 2.9 ESE 28 39 15 21 1020.9 1020.8 0.0
20/06:39pm 19.4 14.5 13.8 70 3.2 ESE 32 50 17 27 1020.7 1020.6 0.0
20/06:30pm 19.6 15.1 13.8 69 3.3 ESE 30 43 16 23 1020.7 1020.6 0.0
20/06:00pm 20.1 15.2 13.8 67 3.6 ESE 32 48 17 26 1020.5 1020.4 0.0
20/05:52pm 20.2 15.6 13.4 65 3.9 ESE 30 48 16 26 1020.4 1020.3 0.0
20/05:30pm 20.6 15.6 13.3 63 4.2 ESE 32 44 17 24 1020.2 1020.1 0.0
20/05:00pm 21.6 16.5 13.0 58 4.9 ESE 32 43 17 23 1020.0 1019.9 0.0
20/04:30pm 22.1 17.1 12.1 53 5.6 SE 30 43 16 23 1019.7 1019.6 0.0
20/04:00pm 22.6 16.8 11.4 49 6.2 SE 33 44 18 24 1019.9 1019.8 0.0
20/03:30pm 22.7 17.1 11.4 49 6.3 SE 32 46 17 25 1019.9 1019.8 0.0
20/03:00pm 22.9 17.6 12.5 52 5.9 SE 32 44 17 24 1019.8 1019.7 0.0
20/02:30pm 22.3 16.8 12.3 53 5.7 SE 33 43 18 23 1019.8 1019.7 0.0
20/02:00pm 22.7 17.1 13.2 55 5.5 SE 35 48 19 26 1019.9 1019.8 0.0
20/01:30pm 22.2 16.6 13.3 57 5.1 SE 35 46 19 25 1020.2 1020.1 0.0
20/01:00pm 22.5 17.6 12.4 52 5.7 SE 30 41 16 22 1020.3 1020.2 0.0
20/12:30pm 22.9 17.7 12.8 53 5.8 SE 32 39 17 21 1020.4 1020.3 0.0
20/12:00pm 22.6 17.4 12.8 54 5.6 SE 32 39 17 21 1020.7 1020.6 0.0
20/11:30am 22.8 18.5 13.3 55 5.5 SSE 28 39 15 21 1021.0 1020.9 0.0
20/11:00am 23.0 18.4 12.3 51 6.1 SE 28 35 15 19 1021.3 1021.2 0.0
20/10:30am 22.7 18.0 10.8 47 6.6 SE 26 35 14 19 1021.5 1021.4 0.0
20/10:00am 22.8 19.1 11.5 49 6.3 SE 22 32 12 17 1021.7 1021.6 0.0
20/09:30am 22.2 18.6 10.4 47 6.5 ESE 20 28 11 15 1021.7 1021.6 0.0
20/09:00am 22.0 18.5 10.8 49 6.1 ESE 20 30 11 16 1021.6 1021.5 0.0
20/08:30am 21.5 19.3 10.9 51 5.8 ENE 13 22 7 12 1021.7 1021.6 0.0
20/08:00am 20.7 18.6 11.3 55 5.2 ENE 13 22 7 12 1021.6 1021.5 0.0
20/07:30am 20.1 18.9 11.6 58 4.7 ENE 9 19 5 10 1021.5 1021.4 0.0
20/07:00am 18.6 17.3 11.4 63 3.9 E 9 17 5 9 1021.5 1021.4 0.0
20/06:30am 16.5 15.7 11.2 71 2.9 ESE 6 9 3 5 1021.4 1021.3 0.0
20/06:00am 15.3 13.8 10.7 74 2.4 NE 9 13 5 7 1021.3 1021.2 0.0
20/05:30am 15.2 13.7 10.6 74 2.4 ENE 9 17 5 9 1020.9 1020.8 0.0
20/05:00am 15.8 13.4 11.4 75 2.4 E 15 19 8 10 1020.6 1020.5 0.0
20/04:30am 16.5 13.9 12.1 75 2.4 E 17 22 9 12 1020.0 1019.9 0.0
20/04:00am 16.6 14.1 12.2 75 2.4 ESE 17 22 9 12 1019.9 1019.8 0.0
20/03:30am 16.5 13.9 12.1 75 2.4 ESE 17 24 9 13 1019.8 1019.7 0.0
20/03:00am 15.3 13.7 11.5 78 2.0 E 11 17 6 9 1019.3 1019.2 0.0
20/02:30am 15.1 13.4 11.1 77 2.1 ESE 11 15 6 8 1018.9 1018.8 0.0
20/02:00am 15.4 14.1 11.4 77 2.1 ENE 9 13 5 7 1018.4 1018.3 0.0
20/01:30am 15.6 14.3 11.4 76 2.3 ENE 9 15 5 8 1018.4 1018.3 0.0
20/01:00am 15.7 14.1 11.5 76 2.3 ENE 11 19 6 10 1018.5 1018.4 0.0
20/12:30am 15.9 13.9 11.5 75 2.4 E 13 17 7 9 1018.5 1018.4 0.0
20/12:00am 16.0 14.4 11.4 74 2.5 E 11 15 6 8 1018.8 1018.7 0.0
 
Date/Time
WST
Temp
°C
App
Temp
°C
Dew
Point
°C
Rel
Hum
%
Delta-T
°C
Wind Press
QNH
hPa
Press
MSL
hPa
Rain since
9am
mm
Dir  Spd
km/h
Gust
km/h
Spd
kts
Gust
kts
19/11:30pm 16.5 14.5 11.6 73 2.7 E 13 17 7 9 1019.0 1018.9 0.0
19/11:00pm 17.1 14.4 11.8 71 2.9 E 17 22 9 12 1019.2 1019.1 0.0
19/10:30pm 17.1 14.8 11.6 70 3.0 E 15 20 8 11 1019.5 1019.4 0.0
19/10:00pm 17.4 15.5 11.7 69 3.1 E 13 19 7 10 1019.3 1019.2 0.0
19/09:30pm 17.7 15.0 11.7 68 3.3 E 17 20 9 11 1019.1 1019.0 0.0
19/09:00pm 18.1 15.0 11.7 66 3.5 E 19 24 10 13 1019.1 1019.0 0.0
19/08:30pm 18.4 15.4 11.9 66 3.6 ESE 19 24 10 13 1019.0 1018.9 0.0
19/08:00pm 18.7 15.5 11.8 64 3.8 E 20 28 11 15 1018.3 1018.2 0.0
19/07:30pm 19.2 14.9 12.0 63 4.0 E 26 37 14 20 1017.9 1017.8 0.0
19/07:00pm 19.4 16.3 12.2 63 4.0 E 20 32 11 17 1017.6 1017.5 0.0
19/06:30pm 19.9 14.8 11.9 60 4.4 ESE 30 44 16 24 1017.3 1017.2 0.0
19/06:00pm 20.4 15.9 12.6 61 4.4 ESE 28 39 15 21 1017.3 1017.2 0.0
19/05:30pm 20.6 15.3 12.6 60 4.5 ESE 32 43 17 23 1017.2 1017.1 0.0
19/05:00pm 20.8 15.8 13.3 62 4.3 ESE 32 44 17 24 1017.1 1017.0 0.0
19/04:30pm 20.7 14.9 12.7 60 4.5 ESE 35 48 19 26 1017.1 1017.0 0.0
19/04:00pm 21.7 16.2 12.5 56 5.2 SE 33 46 18 25 1017.2 1017.1 0.0
19/03:30pm 21.7 16.7 13.3 59 4.8 SE 32 41 17 22 1017.1 1017.0 0.0
19/03:00pm 21.9 16.5 12.7 56 5.2 SE 33 50 18 27 1017.2 1017.1 0.0
19/02:58pm 22.1 16.9 12.9 56 5.3 SE 32 50 17 27 1017.3 1017.2 0.0
19/02:30pm 22.2 17.5 14.3 61 4.6 SE 32 43 17 23 1017.4 1017.3 0.0
19/02:00pm 22.4 18.0 14.0 59 4.9 SE 30 41 16 22 1017.4 1017.3 0.0
19/01:30pm 23.6 19.7 13.2 52 6.0 SE 26 33 14 18 1017.9 1017.8 0.0
19/01:00pm 26.1 23.8 9.0 34 9.3 ENE 11 20 6 11 1018.3 1018.2 0.0

Other formats

Comma delimited format used in spreadsheet applications
http://www.bom.gov.au/fwo/IDW60801/IDW60801.94638.axf

JavaScript Object Notation format (JSON) in row-major order
http://www.bom.gov.au/fwo/IDW60801/IDW60801.94638.json

Data quality

Most of these data are generated automatically and are frequently updated. Quality checks on data are not normally performed. It is possible for incorrect values to appear. Refer to information at About Latest Weather Observations and please check the disclaimer before using these data.